Time;durP1;ratioP1;P1;durP2;ratioP2;P2;SDS_P1;SDS_P2;PMS_P1;PMS_P2;Temp;Humidity;BMP_temperature;BMP_pressure;BME280_temperature;BME280_humidity;BME280_pressure;Samples;Min_cycle;Max_cycle;Signal;HPM_P1;HPM_P2
2024/03/06 00:01:06;;;;;;;104.38;94.07;;;;;;;8.88;97.24;98995.31;5072163;28;20035;-49
2024/03/06 00:03:32;;;;;;;60.45;54.35;;;;;;;9.08;96.97;98997.38;5073662;28;20025;-49
2024/03/06 00:05:58;;;;;;;34.92;31.38;;;;;;;8.94;94.70;98994.59;5072856;28;20051;-49
2024/03/06 00:08:34;;;;;;;191.32;172.77;;;;;;;8.59;93.95;98996.94;5073328;28;20498;-49
2024/03/06 00:10:59;;;;;;;61.25;55.65;;;;;;;8.47;95.92;99003.63;5071921;28;20028;-49
2024/03/06 00:13:25;;;;;;;50.53;45.03;;;;;;;8.52;98.05;99005.69;5073457;28;20104;-49
2024/03/06 00:15:51;;;;;;;135.48;123.13;;;;;;;8.57;99.15;99013.78;5071877;28;20517;-49
2024/03/06 00:18:17;;;;;;;28.65;26.02;;;;;;;8.68;100.00;99012.56;5071740;28;20082;-49
2024/03/06 00:20:44;;;;;;;9.30;7.13;;;;;;;8.77;100.00;99014.91;5073013;28;20032;-49
2024/03/06 00:23:10;;;;;;;11.38;10.10;;;;;;;8.80;99.40;99017.16;5072968;28;20059;-49
2024/03/06 00:25:36;;;;;;;5.57;5.00;;;;;;;8.70;99.13;99021.03;5072960;28;20465;-49
2024/03/06 00:28:01;;;;;;;7.47;4.47;;;;;;;8.74;100.00;99030.16;5071588;28;20107;-49
2024/03/06 00:30:27;;;;;;;69.75;63.45;;;;;;;8.80;100.00;99025.00;5072889;28;20023;-49
2024/03/06 00:32:53;;;;;;;14.07;11.77;;;;;;;8.77;100.00;99029.78;5072833;28;20021;-49
2024/03/06 00:35:19;;;;;;;6.50;5.47;;;;;;;8.79;100.00;99027.78;5072743;28;20024;-49
2024/03/06 00:37:45;;;;;;;8.95;6.82;;;;;;;8.75;100.00;99029.13;5072720;28;20020;-49
2024/03/06 00:40:12;;;;;;;14.95;13.40;;;;;;;8.77;100.00;99032.38;5072297;28;20071;-47
2024/03/06 00:42:38;;;;;;;7.63;5.65;;;;;;;8.70;100.00;99039.34;5071341;28;20502;-49
2024/03/06 00:45:04;;;;;;;12.20;10.98;;;;;;;8.67;100.00;99040.53;5072598;28;20074;-49
2024/03/06 00:47:29;;;;;;;21.00;19.02;;;;;;;8.68;100.00;99046.56;5072604;28;20020;-48
2024/03/06 00:49:55;;;;;;;12.00;9.60;;;;;;;8.65;100.00;99046.91;5072415;28;20112;-49
2024/03/06 00:52:21;;;;;;;13.00;11.32;;;;;;;8.40;99.37;99039.28;5071155;28;20029;-49
2024/03/06 00:54:46;;;;;;;8.82;5.65;;;;;;;8.30;99.82;99046.56;5071080;28;20028;-49
2024/03/06 00:57:12;;;;;;;7.35;5.00;;;;;;;8.28;100.00;99049.34;5072377;28;20435;-49
2024/03/06 00:59:38;;;;;;;5.57;4.70;;;;;;;8.28;100.00;99041.50;5072255;28;20024;-49
2024/03/06 01:02:03;;;;;;;9.18;4.18;;;;;;;8.26;100.00;99045.28;5072265;28;20414;-49
2024/03/06 01:04:29;;;;;;;9.35;6.53;;;;;;;8.29;99.68;99048.38;5072271;28;20024;-49
2024/03/06 01:06:56;;;;;;;16.13;14.48;;;;;;;8.32;99.36;99037.53;5072191;28;20024;-49
2024/03/06 01:09:23;;;;;;;14.35;11.77;;;;;;;8.46;98.70;99041.19;5070853;28;20111;-49
2024/03/06 01:11:48;;;;;;;7.47;3.33;;;;;;;8.57;98.60;99042.56;5072081;28;20020;-49
2024/03/06 01:14:14;;;;;;;6.50;3.80;;;;;;;8.54;97.79;99043.75;5072152;28;20056;-49
2024/03/06 01:16:40;;;;;;;4.18;3.13;;;;;;;8.55;97.64;99036.69;5070735;28;20143;-49
2024/03/06 01:19:05;;;;;;;7.63;4.40;;;;;;;8.59;98.11;99049.25;5071996;28;20027;-49
2024/03/06 01:21:33;;;;;;;7.93;5.70;;;;;;;8.57;98.08;99040.78;5072336;28;20122;-49
2024/03/06 01:23:58;;;;;;;7.18;4.57;;;;;;;8.61;98.29;99043.84;5072213;28;20393;-49
2024/03/06 01:26:24;;;;;;;6.13;3.78;;;;;;;8.60;97.87;99045.66;5072224;28;20029;-49
2024/03/06 01:28:50;;;;;;;5.75;4.20;;;;;;;8.73;98.65;99045.03;5070646;28;20394;-49
2024/03/06 01:31:16;;;;;;;4.93;3.63;;;;;;;8.84;98.57;99051.63;5071867;28;20022;-49
2024/03/06 01:33:41;;;;;;;7.60;3.92;;;;;;;8.87;98.01;99047.84;5071955;28;20044;-49
2024/03/06 01:36:07;;;;;;;5.88;4.22;;;;;;;9.03;98.64;99039.00;5070845;28;20028;-49
2024/03/06 01:38:33;;;;;;;9.07;4.25;;;;;;;9.15;98.16;99040.94;5071755;28;20021;-49
2024/03/06 01:40:58;;;;;;;7.38;6.05;;;;;;;9.18;96.85;99040.59;5070296;28;20052;-49
2024/03/06 01:43:25;;;;;;;6.03;4.30;;;;;;;9.04;95.52;99038.81;5070469;28;20029;-49
2024/03/06 01:45:52;;;;;;;7.03;4.93;;;;;;;8.92;94.96;99048.13;5071715;28;20035;-49
2024/03/06 01:48:27;;;;;;;6.90;4.30;;;;;;;8.76;94.29;99036.81;5071657;28;20103;-48
2024/03/06 01:50:56;;;;;;;7.97;6.75;;;;;;;8.89;95.90;99038.00;5053794;28;20024;-47
2024/03/06 01:53:34;;;;;;;28.60;25.77;;;;;;;9.06;96.69;99043.88;5070368;28;20029;-47
2024/03/06 01:56:04;;;;;;;10.40;9.23;;;;;;;9.29;96.40;99048.97;5071669;28;20063;-47
2024/03/06 01:58:33;;;;;;;10.57;9.48;;;;;;;9.45;95.52;99046.16;5070365;28;20039;-47
2024/03/06 02:01:01;;;;;;;9.45;6.22;;;;;;;9.44;94.12;99041.09;5071539;28;20024;-47
2024/03/06 02:03:29;;;;;;;9.48;6.75;;;;;;;9.46;93.13;99044.38;5070379;28;20028;-47
2024/03/06 02:05:58;;;;;;;6.38;4.07;;;;;;;9.39;91.86;99039.84;5071527;28;20024;-47
2024/03/06 02:08:26;;;;;;;11.90;10.70;;;;;;;9.26;91.80;99038.88;5071480;28;20039;-47
2024/03/06 02:10:55;;;;;;;9.88;4.22;;;;;;;9.34;91.89;99047.44;5071470;28;20540;-47
2024/03/06 02:13:23;;;;;;;11.38;7.32;;;;;;;9.25;89.96;99040.69;5071513;28;20506;-47
2024/03/06 02:15:50;;;;;;;6.15;3.92;;;;;;;9.26;89.91;99038.88;5071693;28;20063;-47
2024/03/06 02:18:17;;;;;;;7.68;6.20;;;;;;;9.39;89.74;99046.88;5071470;28;20554;-47
2024/03/06 02:20:43;;;;;;;13.10;11.02;;;;;;;9.58;89.28;99046.31;5070101;28;20040;-49
2024/03/06 02:23:09;;;;;;;8.35;6.50;;;;;;;9.78;88.81;99043.09;5071426;28;20447;-49
2024/03/06 02:25:34;;;;;;;7.32;4.05;;;;;;;9.96;87.83;99043.47;5071312;28;20029;-49
2024/03/06 02:28:00;;;;;;;43.13;38.72;;;;;;;10.14;86.53;99040.41;5071935;28;20395;-49
2024/03/06 02:30:26;;;;;;;15.68;9.10;;;;;;;10.26;84.82;99039.88;5075147;28;20024;-49
2024/03/06 02:32:51;;;;;;;4.72;3.63;;;;;;;10.31;82.96;99043.59;5075145;28;20024;-49
2024/03/06 02:35:17;;;;;;;10.18;3.38;;;;;;;10.41;82.37;99047.72;5075134;28;20028;-49
2024/03/06 02:37:44;;;;;;;11.60;3.30;;;;;;;10.33;80.44;99048.66;5074962;28;20036;-49
2024/03/06 02:40:10;;;;;;;8.40;4.25;;;;;;;10.12;79.22;99046.81;5074681;28;20051;-49
2024/03/06 02:42:38;;;;;;;5.55;2.88;;;;;;;10.02;79.25;99046.34;5074980;28;20020;-49
2024/03/06 02:45:07;;;;;;;7.15;3.67;;;;;;;9.66;76.75;99047.19;5074889;28;20115;-49
2024/03/06 02:47:33;;;;;;;38.67;34.78;;;;;;;9.50;76.75;99051.66;5074859;28;20052;-49
2024/03/06 02:49:59;;;;;;;14.27;11.95;;;;;;;9.32;77.48;99057.28;5074734;28;20048;-49
2024/03/06 02:52:24;;;;;;;10.30;7.53;;;;;;;9.30;79.11;99055.88;5075030;28;20032;-49
2024/03/06 02:54:51;;;;;;;10.88;9.27;;;;;;;9.32;79.01;99054.69;5074755;28;20109;-48
2024/03/06 02:57:16;;;;;;;9.38;6.45;;;;;;;9.26;78.74;99055.41;5073361;28;20024;-49
2024/03/06 02:59:42;;;;;;;7.82;7.03;;;;;;;9.18;77.90;99058.13;5074534;28;20169;-49
2024/03/06 03:02:08;;;;;;;16.05;5.25;;;;;;;9.17;78.64;99066.97;5074621;28;20028;-50
2024/03/06 03:04:34;;;;;;;6.60;3.60;;;;;;;9.09;78.87;99065.25;5074614;28;20028;-49
2024/03/06 03:07:00;;;;;;;10.77;9.43;;;;;;;9.14;79.36;99072.56;5073181;28;20024;-49
2024/03/06 03:09:25;;;;;;;8.35;4.70;;;;;;;9.21;79.62;99063.00;5073166;28;20024;-50
2024/03/06 03:11:51;;;;;;;11.73;6.13;;;;;;;9.35;79.26;99063.97;5073062;28;20398;-50
2024/03/06 03:14:17;;;;;;;6.80;3.97;;;;;;;9.13;77.69;99061.28;5074425;28;20025;-49
2024/03/06 03:16:42;;;;;;;7.40;5.20;;;;;;;8.85;78.00;99061.09;5073020;28;20054;-50
2024/03/06 03:19:08;;;;;;;14.45;9.82;;;;;;;8.87;79.04;99069.56;5056369;28;20479;-49
2024/03/06 03:21:34;;;;;;;9.57;4.82;;;;;;;8.98;79.00;99061.28;5072935;28;20028;-47
2024/03/06 03:24:00;;;;;;;4.18;3.30;;;;;;;9.09;78.60;99060.00;5074283;28;20024;-47
2024/03/06 03:26:26;;;;;;;6.03;3.55;;;;;;;9.03;77.90;99062.53;5072972;28;20452;-47
2024/03/06 03:28:51;;;;;;;6.03;3.05;;;;;;;9.05;78.05;99065.78;5074162;28;20024;-47
2024/03/06 03:31:17;;;;;;;8.95;3.75;;;;;;;9.20;77.71;99064.00;5074125;28;20024;-47
2024/03/06 03:33:43;;;;;;;7.28;4.80;;;;;;;9.44;76.97;99067.28;5072851;28;20025;-47
2024/03/06 03:36:09;;;;;;;5.90;3.10;;;;;;;9.48;75.45;99074.63;5072738;28;20071;-47
2024/03/06 03:38:40;;;;;;;6.60;3.60;;;;;;;9.50;74.58;99061.34;5072627;28;20029;-47
2024/03/06 03:41:13;;;;;;;4.93;3.97;;;;;;;9.39;74.82;99068.66;5072534;28;20048;-47
2024/03/06 03:43:42;;;;;;;13.60;10.25;;;;;;;9.28;74.61;99063.91;5073771;28;20035;-47
2024/03/06 03:46:09;;;;;;;9.80;4.75;;;;;;;9.18;74.98;99058.13;5073789;28;20035;-47
2024/03/06 03:48:36;;;;;;;10.52;9.25;;;;;;;9.12;74.80;99064.09;5073702;28;20070;-47
2024/03/06 03:51:04;;;;;;;15.90;10.40;;;;;;;9.12;75.04;99058.84;5073686;28;20028;-47
2024/03/06 03:53:30;;;;;;;7.85;4.05;;;;;;;9.16;75.88;99058.31;5073971;28;20161;-47
2024/03/06 03:55:56;;;;;;;7.38;3.42;;;;;;;9.17;74.76;99062.53;5073612;28;20550;-47
2024/03/06 03:58:22;;;;;;;55.15;49.95;;;;;;;9.02;73.71;99055.69;5073559;28;20371;-47
2024/03/06 04:00:48;;;;;;;7.85;6.80;;;;;;;8.88;73.61;99057.31;5072168;28;20036;-47
2024/03/06 04:03:13;;;;;;;7.97;6.18;;;;;;;8.73;73.75;99060.75;5073420;28;20497;-47
2024/03/06 04:05:39;;;;;;;5.95;4.47;;;;;;;8.69;74.15;99064.72;5073446;28;20433;-47
2024/03/06 04:08:08;;;;;;;8.13;5.05;;;;;;;8.56;74.01;99061.88;5073394;28;20099;-47
2024/03/06 04:10:33;;;;;;;6.15;3.22;;;;;;;8.57;74.92;99058.25;5073302;28;20482;-47
2024/03/06 04:12:59;;;;;;;9.00;3.78;;;;;;;8.51;74.92;99061.59;5071929;28;20041;-47
2024/03/06 04:15:25;;;;;;;5.85;3.30;;;;;;;8.55;75.59;99070.72;5071940;28;20056;-47
2024/03/06 04:17:52;;;;;;;9.60;4.13;;;;;;;8.54;75.70;99067.28;5055211;28;20032;-47
2024/03/06 04:20:18;;;;;;;12.68;11.25;;;;;;;8.52;75.94;99064.03;5071981;28;20033;-47
2024/03/06 04:22:46;;;;;;;9.77;6.25;;;;;;;8.42;75.97;99068.69;5073070;28;20544;-47
2024/03/06 04:25:11;;;;;;;10.98;3.53;;;;;;;8.47;77.13;99068.16;5072963;28;20059;-47
2024/03/06 04:27:37;;;;;;;33.25;29.75;;;;;;;8.59;77.40;99066.75;5071659;28;20055;-47
2024/03/06 04:30:04;;;;;;;13.38;12.02;;;;;;;8.71;77.40;99067.13;5072984;28;20394;-47
2024/03/06 04:32:29;;;;;;;10.18;5.60;;;;;;;8.84;77.72;99072.56;5071622;28;20033;-47
2024/03/06 04:34:56;;;;;;;17.70;12.70;;;;;;;8.94;77.71;99072.31;5072898;28;20024;-47
2024/03/06 04:37:22;;;;;;;13.07;11.02;;;;;;;9.09;78.06;99075.72;5072764;28;20029;-47
2024/03/06 04:39:48;;;;;;;10.52;9.32;;;;;;;9.22;77.41;99075.09;5072408;28;20035;-48
2024/03/06 04:42:14;;;;;;;21.27;18.52;;;;;;;9.33;76.43;99077.25;5071374;28;20056;-47
2024/03/06 04:44:39;;;;;;;5.70;3.55;;;;;;;9.34;75.75;99078.88;5072595;28;20491;-47
2024/03/06 04:47:05;;;;;;;15.10;12.93;;;;;;;9.26;76.02;99080.78;5071276;28;20400;-47
2024/03/06 04:49:34;;;;;;;6.25;3.00;;;;;;;9.23;75.84;99079.31;5072561;28;20097;-47
2024/03/06 04:52:01;;;;;;;5.93;3.85;;;;;;;9.00;75.39;99082.06;5070874;28;20063;-47
2024/03/06 04:54:27;;;;;;;7.50;5.82;;;;;;;8.82;75.89;99079.78;5072732;28;20051;-47
2024/03/06 04:56:52;;;;;;;7.88;5.45;;;;;;;8.62;76.21;99083.91;5072381;28;20479;-47
2024/03/06 04:59:18;;;;;;;8.93;6.45;;;;;;;8.57;77.05;99081.81;5072332;28;20103;-47
2024/03/06 05:01:44;;;;;;;5.43;3.83;;;;;;;8.52;77.13;99084.97;5072343;28;20074;-47
2024/03/06 05:04:10;;;;;;;7.20;5.18;;;;;;;8.46;77.29;99088.28;5072201;28;20112;-47
2024/03/06 05:06:37;;;;;;;6.53;4.40;;;;;;;8.47;77.92;99089.94;5072134;28;20028;-47
2024/03/06 05:09:04;;;;;;;12.48;9.05;;;;;;;8.50;77.91;99096.59;5072265;28;20021;-47
2024/03/06 05:11:31;;;;;;;9.68;6.20;;;;;;;8.59;78.18;99096.34;5072116;28;20107;-47
2024/03/06 05:13:59;;;;;;;9.13;3.80;;;;;;;8.59;77.71;99098.97;5070752;28;20036;-47
2024/03/06 05:16:26;;;;;;;7.78;5.18;;;;;;;8.45;77.26;99102.38;5070792;28;20062;-47
2024/03/06 05:18:52;;;;;;;9.70;5.43;;;;;;;8.15;77.74;99107.44;5072232;28;20390;-47
2024/03/06 05:21:19;;;;;;;6.93;5.30;;;;;;;8.04;78.61;99107.03;5072028;28;20029;-47
2024/03/06 05:23:45;;;;;;;10.43;5.25;;;;;;;8.02;79.00;99114.25;5070680;28;20486;-47
2024/03/06 05:26:10;;;;;;;7.15;4.95;;;;;;;7.89;79.41;99110.41;5070661;28;20123;-47
2024/03/06 05:28:36;;;;;;;6.28;4.20;;;;;;;7.91;80.23;99108.44;5072018;28;20536;-47
2024/03/06 05:31:17;;;;;;;6.40;5.70;;;;;;;8.02;80.43;99103.78;5071929;28;20081;-47
2024/03/06 05:33:43;;;;;;;9.45;3.92;;;;;;;8.18;80.15;99106.28;5070623;28;20052;-47
2024/03/06 05:36:09;;;;;;;6.20;4.82;;;;;;;8.20;79.86;99104.31;5071845;28;20490;-47
2024/03/06 05:38:35;;;;;;;6.63;3.67;;;;;;;8.20;79.78;99112.97;5071755;28;20025;-46
2024/03/06 05:41:00;;;;;;;7.97;3.50;;;;;;;8.22;79.73;99115.41;5071624;28;20106;-47
2024/03/06 05:43:27;;;;;;;6.78;5.43;;;;;;;8.25;79.68;99115.06;5070441;28;20036;-47
2024/03/06 05:45:53;;;;;;;6.90;4.35;;;;;;;8.36;79.70;99106.00;5071703;28;20052;-47
2024/03/06 05:48:19;;;;;;;6.15;3.92;;;;;;;8.45;79.43;99117.22;5072021;28;20055;-47
2024/03/06 05:50:44;;;;;;;6.30;4.75;;;;;;;8.54;79.42;99117.00;5071697;28;20051;-47
2024/03/06 05:53:13;;;;;;;7.55;4.53;;;;;;;8.54;77.98;99117.00;5070540;28;20402;-47
2024/03/06 05:55:39;;;;;;;14.48;12.77;;;;;;;8.45;77.50;99118.06;5070367;28;20145;-47
2024/03/06 05:58:05;;;;;;;4.88;2.65;;;;;;;8.33;77.15;99120.25;5070345;28;20075;-47
2024/03/06 06:00:31;;;;;;;9.20;3.92;;;;;;;8.24;76.96;99126.50;5071486;28;20517;-49
2024/03/06 06:02:57;;;;;;;15.32;11.32;;;;;;;8.00;76.57;99128.28;5070870;28;20037;-49
2024/03/06 06:05:24;;;;;;;8.55;4.97;;;;;;;7.90;77.66;99126.88;5075716;28;20478;-49
2024/03/06 06:07:50;;;;;;;6.72;5.30;;;;;;;7.85;78.17;99129.19;5075677;28;20486;-49
2024/03/06 06:10:16;;;;;;;4.55;3.58;;;;;;;7.93;79.29;99129.97;5074329;28;20028;-49
2024/03/06 06:12:42;;;;;;;5.90;4.57;;;;;;;8.05;78.93;99129.56;5075564;28;20025;-49
2024/03/06 06:15:08;;;;;;;10.75;7.97;;;;;;;8.20;79.27;99136.50;5075421;28;20119;-49
2024/03/06 06:17:34;;;;;;;9.73;8.43;;;;;;;8.29;78.83;99134.66;5074138;28;20502;-49
2024/03/06 06:20:00;;;;;;;6.57;4.95;;;;;;;8.39;78.76;99137.00;5075272;28;20024;-49
2024/03/06 06:22:29;;;;;;;13.85;10.13;;;;;;;8.43;78.39;99130.50;5075448;28;20042;-49
2024/03/06 06:24:55;;;;;;;6.88;4.70;;;;;;;8.41;78.19;99135.09;5075319;28;20487;-49
2024/03/06 06:27:22;;;;;;;6.13;4.32;;;;;;;8.23;78.08;99135.34;5074132;28;20104;-49
2024/03/06 06:29:48;;;;;;;8.55;3.88;;;;;;;8.10;78.37;99142.94;5075285;28;20024;-49
2024/03/06 06:32:13;;;;;;;6.20;3.35;;;;;;;7.92;78.18;99137.97;5075162;28;20033;-49
2024/03/06 06:34:39;;;;;;;7.80;4.68;;;;;;;7.82;78.88;99148.63;5073835;28;20138;-49
2024/03/06 06:37:05;;;;;;;9.88;6.28;;;;;;;7.77;79.71;99143.13;5073787;28;20029;-49
2024/03/06 06:39:33;;;;;;;10.65;5.35;;;;;;;7.87;79.60;99140.28;5074974;28;20052;-49
2024/03/06 06:41:59;;;;;;;9.23;4.70;;;;;;;7.88;79.77;99149.75;5073487;28;20048;-49
2024/03/06 06:44:24;;;;;;;8.60;4.80;;;;;;;7.98;80.00;99151.16;5073699;28;20047;-49
2024/03/06 06:46:50;;;;;;;7.45;5.25;;;;;;;8.14;80.11;99152.88;5075153;28;20028;-49
2024/03/06 06:49:17;;;;;;;8.18;5.55;;;;;;;8.29;79.73;99152.97;5073600;28;20025;-49
2024/03/06 06:51:43;;;;;;;10.63;4.97;;;;;;;8.33;79.28;99148.16;5074807;28;20025;-49
2024/03/06 06:54:08;;;;;;;7.75;5.80;;;;;;;8.32;79.21;99147.38;5074751;28;20560;-49
2024/03/06 06:56:34;;;;;;;11.68;9.88;;;;;;;8.29;79.11;99152.13;5073399;28;20032;-49
2024/03/06 06:59:00;;;;;;;22.05;19.40;;;;;;;8.33;79.28;99153.41;5073316;28;20077;-49
2024/03/06 07:01:27;;;;;;;8.45;7.05;;;;;;;8.36;78.83;99155.69;5074637;28;20467;-49
2024/03/06 07:03:53;;;;;;;13.15;6.75;;;;;;;8.30;79.32;99151.16;5074633;28;20374;-49
2024/03/06 07:06:18;;;;;;;9.77;7.38;;;;;;;8.47;79.44;99147.47;5074511;28;20025;-49
2024/03/06 07:08:44;;;;;;;9.82;7.40;;;;;;;8.50;78.61;99149.72;5073189;28;20040;-49
2024/03/06 07:11:10;;;;;;;10.35;9.13;;;;;;;8.43;77.99;99146.19;5074508;28;20379;-49
2024/03/06 07:13:36;;;;;;;14.55;12.05;;;;;;;8.25;77.80;99140.38;5074276;28;20048;-49
2024/03/06 07:16:04;;;;;;;12.70;8.45;;;;;;;8.11;77.65;99150.63;5073054;28;20079;-49
2024/03/06 07:18:30;;;;;;;9.70;7.40;;;;;;;8.03;78.44;99153.28;5074222;28;20118;-49
2024/03/06 07:20:55;;;;;;;10.90;7.72;;;;;;;7.97;78.32;99154.78;5074275;28;20146;-49
2024/03/06 07:23:21;;;;;;;12.27;8.18;;;;;;;7.99;78.97;99152.00;5074266;28;20025;-49
2024/03/06 07:25:47;;;;;;;12.73;6.85;;;;;;;8.27;79.24;99165.41;5074238;28;20027;-49
2024/03/06 07:28:13;;;;;;;12.75;9.30;;;;;;;8.35;78.63;99161.88;5072927;28;20029;-49
2024/03/06 07:30:38;;;;;;;10.80;7.47;;;;;;;8.47;78.45;99160.56;5074049;28;20100;-49
2024/03/06 07:33:04;;;;;;;15.75;8.15;;;;;;;8.73;78.97;99160.19;5072814;28;20085;-49
2024/03/06 07:35:30;;;;;;;11.48;9.02;;;;;;;9.06;78.82;99172.97;5072719;28;20486;-49
2024/03/06 07:37:56;;;;;;;17.17;7.50;;;;;;;9.37;77.99;99172.00;5039423;28;20020;-49
2024/03/06 07:40:22;;;;;;;11.52;7.78;;;;;;;9.66;77.52;99172.97;5073873;28;20045;-49
2024/03/06 07:42:48;;;;;;;18.80;15.23;;;;;;;9.86;76.20;99170.59;5073939;28;20025;-49
2024/03/06 07:45:14;;;;;;;13.40;9.02;;;;;;;9.96;75.53;99171.94;5073784;28;20115;-49
2024/03/06 07:47:41;;;;;;;18.02;10.00;;;;;;;9.97;75.11;99170.94;5074099;28;20155;-49
2024/03/06 07:50:07;;;;;;;15.98;7.75;;;;;;;10.04;74.98;99165.78;5073716;28;20028;-49
2024/03/06 07:52:33;;;;;;;19.42;13.65;;;;;;;10.25;74.68;99169.44;5073628;28;20036;-49
2024/03/06 07:54:59;;;;;;;15.93;9.70;;;;;;;10.48;74.29;99175.31;5072367;28;20387;-49
2024/03/06 07:57:25;;;;;;;18.15;7.32;;;;;;;10.73;73.42;99177.59;5073660;28;20036;-49
2024/03/06 07:59:52;;;;;;;12.68;7.63;;;;;;;10.90;72.77;99173.66;5073501;28;20548;-49
2024/03/06 08:02:18;;;;;;;19.45;13.82;;;;;;;11.09;72.05;99181.91;5073479;28;20052;-49
2024/03/06 08:04:43;;;;;;;17.73;11.75;;;;;;;11.27;71.21;99178.78;5072176;28;20107;-49
2024/03/06 08:07:09;;;;;;;17.80;14.65;;;;;;;11.23;67.33;99180.16;5073432;28;20025;-49
2024/03/06 08:09:35;;;;;;;19.95;14.80;;;;;;;11.20;68.64;99189.25;5072051;28;20025;-49
2024/03/06 08:12:00;;;;;;;13.43;5.95;;;;;;;11.28;68.61;99190.94;5055348;28;20051;-50
2024/03/06 08:14:27;;;;;;;11.18;6.65;;;;;;;11.36;68.22;99194.22;5071971;28;20078;-50
2024/03/06 08:16:53;;;;;;;17.75;6.93;;;;;;;11.49;67.96;99187.41;5073210;28;20036;-49
2024/03/06 08:19:19;;;;;;;9.23;6.03;;;;;;;11.69;67.04;99187.50;5073116;28;20024;-49
2024/03/06 08:21:46;;;;;;;18.85;10.63;;;;;;;11.97;67.19;99177.78;5073049;28;20818;-50
2024/03/06 08:24:12;;;;;;;14.93;9.70;;;;;;;12.30;66.58;99184.13;5073001;28;20029;-49
2024/03/06 08:26:37;;;;;;;8.88;4.43;;;;;;;12.76;65.19;99180.75;5072413;28;20035;-49
2024/03/06 08:29:03;;;;;;;9.43;5.25;;;;;;;13.26;64.00;99178.50;5072965;28;20443;-50
2024/03/06 08:31:30;;;;;;;15.50;5.28;;;;;;;13.71;62.56;99175.97;5072950;28;20028;-50
2024/03/06 08:33:59;;;;;;;12.23;4.70;;;;;;;14.01;60.80;99172.00;5072840;28;20028;-49
2024/03/06 08:36:25;;;;;;;14.52;5.32;;;;;;;13.88;60.03;99175.50;5071520;28;20033;-49
2024/03/06 08:38:51;;;;;;;15.85;4.78;;;;;;;13.92;59.78;99174.06;5071361;28;20035;-49
2024/03/06 08:41:17;;;;;;;8.68;3.33;;;;;;;14.13;58.99;99180.88;5082379;28;20052;-50
2024/03/06 08:43:42;;;;;;;12.38;4.20;;;;;;;14.16;57.49;99183.06;5082130;28;20053;-50
2024/03/06 08:46:08;;;;;;;14.93;7.55;;;;;;;14.51;57.72;99172.91;5070949;28;20051;-50
2024/03/06 08:48:34;;;;;;;12.18;8.80;;;;;;;15.13;56.26;99177.53;5072874;28;20134;-49
2024/03/06 08:50:59;;;;;;;10.25;3.45;;;;;;;15.46;54.16;99177.22;5072580;28;20055;-49
2024/03/06 08:53:25;;;;;;;22.73;4.05;;;;;;;15.13;52.68;99188.09;5072496;28;20031;-49
2024/03/06 08:55:51;;;;;;;10.63;5.28;;;;;;;14.68;53.54;99183.00;5072429;28;20035;-49
2024/03/06 08:58:18;;;;;;;12.43;3.75;;;;;;;14.71;54.16;99191.31;5071114;28;20046;-49
2024/03/06 09:00:44;;;;;;;8.82;3.50;;;;;;;14.63;53.35;99188.09;5072211;28;20547;-49
2024/03/06 09:03:10;;;;;;;9.52;6.75;;;;;;;14.57;54.21;99185.31;5072371;28;20033;-49
2024/03/06 09:05:35;;;;;;;11.45;5.43;;;;;;;14.57;53.96;99190.59;5072310;28;20549;-49
2024/03/06 09:08:01;;;;;;;18.05;3.58;;;;;;;14.82;54.06;99183.69;5072307;28;20462;-49
2024/03/06 09:10:28;;;;;;;4.88;2.40;;;;;;;15.14;51.73;99177.31;5072218;28;20390;-49
2024/03/06 09:12:53;;;;;;;9.40;3.75;;;;;;;15.25;51.17;99189.03;5072179;28;20028;-49
2024/03/06 09:15:19;;;;;;;12.65;5.38;;;;;;;15.28;51.40;99185.94;5072128;28;20024;-49
2024/03/06 09:17:47;;;;;;;8.10;2.88;;;;;;;15.41;51.52;99187.63;5072118;28;20056;-49
2024/03/06 09:20:18;;;;;;;7.57;2.55;;;;;;;15.48;50.43;99184.94;5070701;28;20123;-49
2024/03/06 09:22:47;;;;;;;9.88;2.00;;;;;;;15.52;48.99;99186.09;5070783;28;20097;-49
2024/03/06 09:25:13;;;;;;;4.78;2.00;;;;;;;15.46;49.36;99181.69;5070822;28;20059;-49
2024/03/06 09:27:39;;;;;;;6.93;2.10;;;;;;;15.33;49.12;99183.44;5070717;28;20037;-49
2024/03/06 09:30:05;;;;;;;10.07;2.88;;;;;;;15.45;49.03;99175.56;5071976;28;20398;-49
2024/03/06 09:32:31;;;;;;;9.65;3.55;;;;;;;15.69;48.54;99176.53;5071966;28;20497;-49
2024/03/06 09:34:58;;;;;;;11.27;3.97;;;;;;;15.68;48.23;99172.28;5071918;28;20032;-47
2024/03/06 09:37:24;;;;;;;9.20;4.30;;;;;;;15.66;48.54;99174.34;5071141;28;20510;-47
2024/03/06 09:39:50;;;;;;;7.50;2.60;;;;;;;15.84;47.73;99178.84;5071551;28;20035;-47
2024/03/06 09:42:16;;;;;;;7.63;2.85;;;;;;;15.89;47.83;99176.31;5070514;28;20035;-47
2024/03/06 09:44:42;;;;;;;6.93;2.47;;;;;;;16.00;47.40;99179.25;5071623;28;20045;-47
2024/03/06 09:47:13;;;;;;;6.43;2.50;;;;;;;16.03;46.85;99176.16;5071711;28;20028;-47
2024/03/06 09:49:40;;;;;;;14.93;3.92;;;;;;;16.25;47.12;99179.13;5070466;28;20032;-47
2024/03/06 09:52:06;;;;;;;34.03;24.48;;;;;;;16.42;47.07;99180.13;5070532;28;20103;-47
2024/03/06 09:54:31;;;;;;;26.73;19.70;;;;;;;16.62;46.58;99173.69;5071654;28;20107;-47
2024/03/06 09:56:58;;;;;;;21.25;16.80;;;;;;;16.90;46.09;99171.25;5071690;28;20028;-47
2024/03/06 09:59:25;;;;;;;16.05;7.93;;;;;;;17.36;44.43;99180.25;5071588;28;20032;-47
2024/03/06 10:01:55;;;;;;;9.00;7.25;;;;;;;17.58;43.71;99176.97;5070286;28;20032;-47
2024/03/06 10:04:27;;;;;;;15.85;11.55;;;;;;;17.63;43.17;99186.91;5070343;28;20086;-47
2024/03/06 10:06:54;;;;;;;32.40;20.98;;;;;;;18.00;42.91;99183.94;5071552;28;20040;-47
2024/03/06 10:09:21;;;;;;;11.27;6.53;;;;;;;18.41;41.59;99177.53;5071618;28;20479;-47
2024/03/06 10:11:47;;;;;;;11.35;4.93;;;;;;;18.14;42.14;99174.63;5070171;28;20526;-46
2024/03/06 10:14:13;;;;;;;10.98;3.03;;;;;;;17.75;42.56;99174.41;5071426;28;20051;-47
2024/03/06 10:16:56;;;;;;;7.50;2.67;;;;;;;17.86;42.08;99178.88;5070131;28;20111;-47
2024/03/06 10:19:22;;;;;;;3.88;1.98;;;;;;;17.94;41.65;99177.72;5071327;28;20071;-47
2024/03/06 10:21:50;;;;;;;6.05;1.27;;;;;;;17.86;40.79;99172.78;5053562;28;20029;-47
2024/03/06 10:24:20;;;;;;;8.73;1.45;;;;;;;17.67;41.34;99172.91;5070327;28;20115;-46
2024/03/06 10:26:47;;;;;;;11.80;6.70;;;;;;;18.19;41.33;99180.06;5070332;28;20115;-47
2024/03/06 10:29:18;;;;;;;11.63;5.45;;;;;;;18.64;39.69;99181.09;5053448;28;20379;-47
2024/03/06 10:31:55;;;;;;;12.48;5.47;;;;;;;19.48;38.64;99178.38;5071340;28;20134;-46
2024/03/06 10:34:22;;;;;;;8.63;2.83;;;;;;;19.85;37.38;99176.97;5071346;28;20028;-46
2024/03/06 10:36:56;;;;;;;7.38;1.70;;;;;;;19.49;38.00;99177.31;5069945;28;20085;-46
2024/03/06 10:39:22;;;;;;;5.63;1.85;;;;;;;19.04;37.85;99172.97;5069941;28;20166;-46
2024/03/06 10:41:55;;;;;;;7.65;1.40;;;;;;;19.51;38.76;99169.09;5071202;28;20052;-47
2024/03/06 10:44:25;;;;;;;7.97;1.75;;;;;;;20.31;35.84;99164.16;5069849;28;20173;-47
2024/03/06 10:47:01;;;;;;;5.20;2.40;;;;;;;20.40;37.25;99172.47;5071163;28;20024;-47
2024/03/06 10:49:29;;;;;;;8.35;1.55;;;;;;;21.51;35.29;99171.72;5071145;28;20052;-46
2024/03/06 10:52:06;;;;;;;9.25;1.52;;;;;;;23.38;31.94;99160.94;5074844;28;20025;-47
2024/03/06 10:54:38;;;;;;;9.65;1.20;;;;;;;23.13;30.81;99157.25;5074781;28;20032;-47
2024/03/06 10:57:05;;;;;;;6.53;1.38;;;;;;;24.21;29.78;99154.16;5074691;28;20476;-47
2024/03/06 10:59:31;;;;;;;4.60;1.85;;;;;;;24.72;28.12;99154.56;5073350;28;20107;-47
2024/03/06 11:02:01;;;;;;;2.08;0.90;;;;;;;23.38;29.31;99159.06;5074658;28;20099;-47
2024/03/06 11:04:29;;;;;;;3.45;1.40;;;;;;;22.16;30.56;99157.22;5074864;28;20381;-47
2024/03/06 11:06:59;;;;;;;11.48;1.50;;;;;;;22.66;31.53;99150.34;5073281;28;20171;-47
2024/03/06 11:09:34;;;;;;;6.55;1.42;;;;;;;23.72;29.96;99150.34;5074507;28;20023;-47
2024/03/06 11:12:01;;;;;;;8.95;1.60;;;;;;;23.65;28.79;99142.63;5073216;28;20098;-47
2024/03/06 11:14:30;;;;;;;5.25;1.42;;;;;;;23.36;29.18;99141.66;5074373;28;20024;-47
2024/03/06 11:17:02;;;;;;;5.30;1.30;;;;;;;22.32;29.73;99145.50;5074364;28;20025;-46
2024/03/06 11:19:30;;;;;;;3.50;1.20;;;;;;;21.42;31.56;99141.19;5072977;28;20060;-47
2024/03/06 11:21:56;;;;;;;4.70;1.38;;;;;;;21.80;30.93;99144.56;5074471;28;20020;-47
2024/03/06 11:24:33;;;;;;;5.90;1.50;;;;;;;21.37;30.46;99153.72;5072983;28;20090;-47
2024/03/06 11:27:05;;;;;;;5.85;1.52;;;;;;;20.37;31.36;99152.47;5074269;28;20020;-47
2024/03/06 11:30:13;;;;;;;4.78;1.20;;;;;;;19.42;32.52;99151.91;5074140;28;20025;-47
2024/03/06 11:33:00;;;;;;;2.70;1.17;;;;;;;18.46;34.05;99152.88;5074104;28;20146;-46